Time;durP1;ratioP1;P1;durP2;ratioP2;P2;SDS_P1;SDS_P2;PMS_P1;PMS_P2;Temp;Humidity;BMP_temperature;BMP_pressure;BME280_temperature;BME280_humidity;BME280_pressure;Samples;Min_cycle;Max_cycle;Signal;HPM_P1;HPM_P2
2024/03/03 00:00:24;;;;;;;9.60;5.40;;;;;;;8.43;73.53;96042.35;108842;1249;22925;-73
2024/03/03 00:03:16;;;;;;;8.90;5.30;;;;;;;8.40;73.43;96039.48;108832;1272;24255;-73
2024/03/03 00:05:48;;;;;;;10.60;6.50;;;;;;;8.34;73.53;96039.90;108859;1273;22506;-73
2024/03/03 00:08:21;;;;;;;13.00;8.10;;;;;;;8.27;73.66;96035.11;108797;1269;22501;-73
2024/03/03 00:10:54;;;;;;;12.90;8.40;;;;;;;8.25;73.77;96035.61;108803;1269;23819;-73
2024/03/03 00:13:28;;;;;;;15.10;9.90;;;;;;;8.22;73.88;96037.49;108862;1273;25272;-72
2024/03/03 00:15:59;;;;;;;14.00;7.90;;;;;;;8.20;74.05;96035.24;108832;1266;22480;-73
2024/03/03 00:18:37;;;;;;;13.70;8.90;;;;;;;8.16;74.23;96032.58;108875;1273;22616;-73
2024/03/03 00:21:18;;;;;;;18.10;11.50;;;;;;;8.11;74.39;96031.61;108842;1273;22791;-73
2024/03/03 00:23:51;;;;;;;15.30;10.90;;;;;;;7.94;74.16;96038.87;108929;1273;24228;-73
2024/03/03 00:26:23;;;;;;;16.10;9.10;;;;;;;7.79;74.55;96037.92;108887;1259;22643;-73
2024/03/03 00:28:54;;;;;;;14.20;9.10;;;;;;;7.71;74.68;96038.69;108816;1266;22573;-73
2024/03/03 00:31:29;;;;;;;15.10;9.40;;;;;;;7.62;75.04;96037.91;108783;1266;25201;-73
2024/03/03 00:34:03;;;;;;;13.40;9.10;;;;;;;7.55;75.21;96035.36;108806;1273;24009;-73
2024/03/03 00:36:42;;;;;;;13.70;8.40;;;;;;;7.52;75.56;96033.75;108886;1272;23874;-73
2024/03/03 00:39:21;;;;;;;15.40;8.70;;;;;;;7.47;75.58;96032.52;108894;1272;24261;-73
2024/03/03 00:41:54;;;;;;;14.00;8.40;;;;;;;7.43;76.02;96033.31;108804;1266;22512;-73
2024/03/03 00:44:27;;;;;;;14.40;10.00;;;;;;;7.41;76.13;96029.06;108826;1273;22525;-73
2024/03/03 00:46:58;;;;;;;14.20;9.20;;;;;;;7.40;76.22;96027.74;108911;1272;22540;-73
2024/03/03 00:49:32;;;;;;;12.80;9.30;;;;;;;7.40;76.35;96027.70;108767;1273;22557;-73
2024/03/03 00:52:05;;;;;;;11.80;8.20;;;;;;;7.43;76.59;96028.09;108810;1250;22919;-73
2024/03/03 00:54:39;;;;;;;16.30;11.10;;;;;;;7.47;76.57;96026.08;108809;1273;25279;-73
2024/03/03 00:57:13;;;;;;;17.40;11.00;;;;;;;7.49;76.59;96025.23;108791;1273;22504;-73
2024/03/03 00:59:44;;;;;;;16.10;12.40;;;;;;;7.45;76.58;96024.23;108771;1272;22672;-73
2024/03/03 01:02:18;;;;;;;17.70;11.70;;;;;;;7.36;76.62;96020.91;108835;1273;24135;-73
2024/03/03 01:04:51;;;;;;;17.30;11.10;;;;;;;7.27;76.66;96022.75;108833;1252;22522;-73
2024/03/03 01:07:23;;;;;;;14.30;9.40;;;;;;;7.22;76.95;96023.25;108827;1273;22560;-73
2024/03/03 01:09:54;;;;;;;16.60;10.50;;;;;;;7.20;76.91;96020.89;108874;1266;23006;-73
2024/03/03 01:12:26;;;;;;;16.20;9.20;;;;;;;7.17;77.00;96018.77;108803;1272;22525;-73
2024/03/03 01:15:00;;;;;;;11.70;8.00;;;;;;;7.03;76.82;96021.33;108834;1268;22515;-73
2024/03/03 01:17:36;;;;;;;13.80;8.00;;;;;;;6.85;77.05;96017.90;108893;1266;22507;-73
2024/03/03 01:20:10;;;;;;;13.90;9.30;;;;;;;6.82;77.73;96019.08;108808;1273;23859;-72
2024/03/03 01:22:42;;;;;;;13.10;9.50;;;;;;;6.81;77.64;96020.73;108812;1273;23667;-73
2024/03/03 01:25:14;;;;;;;15.80;9.50;;;;;;;6.73;77.62;96023.31;108870;1267;22537;-73
2024/03/03 01:27:50;;;;;;;14.50;8.70;;;;;;;6.66;77.88;96025.70;108823;1273;23860;-73
2024/03/03 01:30:21;;;;;;;14.30;8.80;;;;;;;6.65;78.08;96029.35;108862;1266;22507;-73
2024/03/03 01:32:55;;;;;;;14.50;10.60;;;;;;;6.61;78.31;96027.40;108806;1270;22519;-73
2024/03/03 01:35:29;;;;;;;13.50;8.60;;;;;;;6.59;78.31;96025.30;108832;1266;24848;-73
2024/03/03 01:38:02;;;;;;;12.30;7.10;;;;;;;6.55;78.30;96025.47;108815;1269;24168;-73
2024/03/03 01:40:36;;;;;;;12.40;7.20;;;;;;;6.43;78.41;96021.80;108869;1268;22531;-73
2024/03/03 01:43:11;;;;;;;14.40;8.90;;;;;;;6.30;78.14;96022.23;108913;1272;22549;-73
2024/03/03 01:45:43;;;;;;;18.10;10.20;;;;;;;6.07;78.35;96020.71;108884;1266;23686;-73
2024/03/03 01:48:17;;;;;;;16.10;10.30;;;;;;;6.02;79.17;96017.02;108832;1269;23790;-73
2024/03/03 01:50:49;;;;;;;18.40;10.80;;;;;;;6.02;79.53;96011.29;108871;1266;23220;-73
2024/03/03 01:53:22;;;;;;;22.50;9.70;;;;;;;6.00;79.70;96007.40;108814;1273;23778;-73
2024/03/03 01:55:58;;;;;;;13.60;8.30;;;;;;;5.98;79.94;96009.73;108873;1266;25427;-73
2024/03/03 01:58:31;;;;;;;12.80;8.00;;;;;;;5.99;80.50;96009.67;108859;1272;22522;-73
2024/03/03 02:01:08;;;;;;;13.30;7.50;;;;;;;6.07;80.85;96007.99;108855;1272;22511;-73
2024/03/03 02:03:43;;;;;;;13.30;7.00;;;;;;;6.16;81.24;96002.19;108851;1269;22533;-73
2024/03/03 02:06:23;;;;;;;14.90;8.60;;;;;;;6.17;81.03;96007.54;108797;1266;22511;-73
2024/03/03 02:08:59;;;;;;;12.70;8.50;;;;;;;6.13;80.97;96004.88;108885;1272;22511;-73
2024/03/03 02:11:33;;;;;;;12.50;8.10;;;;;;;6.06;81.39;96011.52;108792;1272;23853;-73
2024/03/03 02:14:07;;;;;;;13.40;7.30;;;;;;;6.10;81.63;96010.09;108810;1272;24676;-73
2024/03/03 02:16:41;;;;;;;10.80;6.40;;;;;;;6.06;81.33;96007.73;108841;1266;22536;-73
2024/03/03 02:19:12;;;;;;;12.50;7.80;;;;;;;5.89;81.37;96002.02;108841;1272;22676;-73
2024/03/03 02:21:45;;;;;;;12.50;7.70;;;;;;;5.82;81.81;96002.74;108872;1273;22972;-73
2024/03/03 02:24:20;;;;;;;13.50;8.20;;;;;;;5.78;81.84;95997.48;108837;1272;25306;-73
2024/03/03 02:26:53;;;;;;;11.40;7.00;;;;;;;5.70;81.98;95995.05;108802;1271;22533;-73
2024/03/03 02:29:27;;;;;;;15.20;7.20;;;;;;;5.64;82.35;95996.00;108823;1272;22621;-73
2024/03/03 02:32:03;;;;;;;10.50;6.90;;;;;;;5.62;82.69;95995.45;108751;1273;25419;-73
2024/03/03 02:34:39;;;;;;;15.70;7.30;;;;;;;5.61;83.03;95992.88;108760;1272;23714;-72
2024/03/03 02:37:14;;;;;;;10.40;6.30;;;;;;;5.63;83.21;95998.77;108762;1272;22527;-73
2024/03/03 02:39:52;;;;;;;9.80;6.10;;;;;;;5.58;83.20;96001.14;108806;1274;22518;-73
2024/03/03 02:42:25;;;;;;;10.00;5.80;;;;;;;5.59;83.32;95996.04;108789;1274;24248;-73
2024/03/03 02:44:58;;;;;;;11.20;6.50;;;;;;;5.64;83.59;95999.16;108768;1274;23947;-73
2024/03/03 02:47:30;;;;;;;11.80;8.00;;;;;;;5.74;83.80;96003.05;108798;1273;22512;-72
2024/03/03 02:50:04;;;;;;;12.50;7.30;;;;;;;5.81;83.62;96003.39;108782;1268;22868;-73
2024/03/03 02:52:41;;;;;;;10.10;6.10;;;;;;;5.80;83.36;96003.90;108817;1269;25968;-72
2024/03/03 02:55:12;;;;;;;10.10;7.20;;;;;;;5.77;83.30;96003.68;108825;1272;22534;-72
2024/03/03 02:57:46;;;;;;;13.20;8.60;;;;;;;5.73;83.37;96009.25;108843;1272;22905;-73
2024/03/03 03:00:20;;;;;;;13.30;9.90;;;;;;;5.81;83.83;96005.53;108823;1272;22519;-72
2024/03/03 03:02:55;;;;;;;12.80;8.10;;;;;;;5.95;84.12;96000.56;108765;1269;22564;-73
2024/03/03 03:05:29;;;;;;;11.60;7.80;;;;;;;6.04;84.05;96003.23;108828;1274;22553;-73
2024/03/03 03:08:02;;;;;;;11.70;7.20;;;;;;;6.08;83.81;96007.27;108803;1273;23761;-73
2024/03/03 03:10:40;;;;;;;14.40;7.70;;;;;;;6.08;83.91;96010.31;108826;1273;22512;-72
2024/03/03 03:13:17;;;;;;;14.20;9.50;;;;;;;6.10;83.97;96011.98;108752;1273;22518;-72
2024/03/03 03:15:50;;;;;;;12.50;8.20;;;;;;;6.11;83.97;96013.56;108754;1274;22988;-73
2024/03/03 03:18:22;;;;;;;11.60;6.60;;;;;;;6.08;84.30;96010.20;108767;1274;22830;-73
2024/03/03 03:20:53;;;;;;;15.20;8.20;;;;;;;5.99;84.45;96014.92;108841;1272;22907;-73
2024/03/03 03:23:24;;;;;;;13.80;8.20;;;;;;;5.90;84.70;96012.86;108771;1266;22624;-73
2024/03/03 03:26:01;;;;;;;16.10;8.60;;;;;;;5.90;84.61;96017.45;108870;1272;22575;-73
2024/03/03 03:28:36;;;;;;;13.60;9.20;;;;;;;5.87;84.49;96021.10;108848;1272;22534;-73
2024/03/03 03:31:08;;;;;;;14.00;9.50;;;;;;;5.75;84.29;96023.95;108823;1266;22522;-73
2024/03/03 03:33:43;;;;;;;13.00;10.10;;;;;;;5.67;84.51;96018.03;108876;1272;22534;-73
2024/03/03 03:36:18;;;;;;;12.60;8.50;;;;;;;5.66;84.58;96020.66;108854;1265;22473;-74
2024/03/03 03:38:51;;;;;;;13.40;8.20;;;;;;;5.64;84.47;96017.08;108880;1272;22548;-73
2024/03/03 03:41:23;;;;;;;11.80;6.70;;;;;;;5.67;84.89;96020.77;108834;1272;22474;-73
2024/03/03 03:43:54;;;;;;;12.40;8.20;;;;;;;5.79;84.98;96020.52;108869;1273;25414;-74
2024/03/03 03:46:25;;;;;;;14.50;10.10;;;;;;;5.83;84.93;96022.73;108845;1269;23857;-74
2024/03/03 03:48:56;;;;;;;12.80;9.10;;;;;;;5.81;84.51;96016.36;108849;1250;22518;-74
2024/03/03 03:51:27;;;;;;;10.60;7.10;;;;;;;5.79;84.79;96018.84;108838;1269;22507;-73
2024/03/03 03:54:00;;;;;;;9.90;6.80;;;;;;;5.77;84.75;96017.83;108785;1269;22519;-74
2024/03/03 03:56:35;;;;;;;12.80;7.40;;;;;;;5.78;84.69;96020.42;108862;1272;22507;-74
2024/03/03 03:59:08;;;;;;;11.40;7.40;;;;;;;5.78;84.71;96020.52;108967;1272;22555;-74
2024/03/03 04:01:42;;;;;;;12.30;7.30;;;;;;;5.64;84.21;96021.55;108872;1272;22504;-73
2024/03/03 04:04:23;;;;;;;10.10;6.10;;;;;;;5.54;84.44;96021.75;108906;1272;22479;-73
2024/03/03 04:06:59;;;;;;;12.30;6.40;;;;;;;5.59;85.17;96021.27;108863;1266;22528;-73
2024/03/03 04:09:34;;;;;;;10.00;6.90;;;;;;;5.72;85.60;96021.88;108856;1272;22503;-74
2024/03/03 04:12:08;;;;;;;12.80;7.50;;;;;;;5.84;85.63;96021.20;108912;1272;24232;-73
2024/03/03 04:14:41;;;;;;;11.80;7.50;;;;;;;5.87;85.21;96016.78;108868;1266;22533;-73
2024/03/03 04:17:12;;;;;;;13.50;6.80;;;;;;;5.74;84.74;96017.11;108841;1272;23810;-73
2024/03/03 04:19:46;;;;;;;12.40;7.00;;;;;;;5.60;84.81;96019.44;108810;1266;25454;-73
2024/03/03 04:22:20;;;;;;;10.80;7.00;;;;;;;5.60;85.22;96019.59;108820;1272;23526;-73
2024/03/03 04:25:00;;;;;;;11.90;7.10;;;;;;;5.63;85.67;96019.25;108921;1271;25981;-73
2024/03/03 04:27:41;;;;;;;8.50;5.80;;;;;;;5.69;85.64;96020.83;108841;1272;22518;-73
2024/03/03 04:30:19;;;;;;;8.80;5.70;;;;;;;5.75;85.69;96020.83;108892;1267;22579;-73
2024/03/03 04:33:01;;;;;;;9.90;6.00;;;;;;;5.78;85.57;96017.21;108821;1266;22538;-73
2024/03/03 04:35:33;;;;;;;10.30;6.50;;;;;;;5.78;85.65;96014.59;108892;1272;22580;-73
2024/03/03 04:38:05;;;;;;;9.70;6.30;;;;;;;5.87;85.64;96009.52;108892;1272;24240;-73
2024/03/03 04:40:43;;;;;;;8.70;5.60;;;;;;;5.89;85.66;96010.38;108872;1271;22554;-73
2024/03/03 04:43:18;;;;;;;10.50;6.60;;;;;;;5.89;85.63;96012.52;108827;1272;23852;-73
2024/03/03 04:45:50;;;;;;;12.80;6.50;;;;;;;5.88;85.63;96013.26;108856;1269;22828;-73
2024/03/03 04:48:25;;;;;;;10.40;6.30;;;;;;;5.87;85.53;96013.73;108882;1272;23774;-74
2024/03/03 04:50:58;;;;;;;11.70;6.90;;;;;;;5.84;85.41;96010.38;108871;1269;22548;-74
2024/03/03 04:53:34;;;;;;;9.80;6.00;;;;;;;5.82;85.46;96015.95;108643;1272;25591;-74
2024/03/03 04:56:06;;;;;;;10.80;6.30;;;;;;;5.84;85.72;96016.48;108948;1266;24258;-73
2024/03/03 04:58:43;;;;;;;11.10;7.20;;;;;;;5.84;85.71;96018.42;108831;1269;22625;-73
2024/03/03 05:01:17;;;;;;;9.60;6.10;;;;;;;5.85;85.65;96025.20;108897;1263;25323;-74
2024/03/03 05:03:54;;;;;;;9.70;6.30;;;;;;;5.82;85.45;96024.58;108846;1266;23909;-73
2024/03/03 05:06:32;;;;;;;9.70;6.70;;;;;;;5.79;85.46;96022.16;108916;1272;23692;-73
2024/03/03 05:09:09;;;;;;;10.30;7.40;;;;;;;5.77;85.49;96018.52;108963;1266;23881;-73
2024/03/03 05:11:43;;;;;;;12.80;6.40;;;;;;;5.75;85.37;96021.50;108820;1272;22980;-73
2024/03/03 05:14:16;;;;;;;9.30;6.00;;;;;;;5.74;85.62;96024.29;108876;1272;22701;-73
2024/03/03 05:16:52;;;;;;;10.10;6.00;;;;;;;5.69;85.34;96019.36;108858;1266;22521;-73
2024/03/03 05:19:24;;;;;;;9.90;6.20;;;;;;;5.62;85.52;96016.80;108861;1262;22509;-74
2024/03/03 05:21:58;;;;;;;9.70;6.20;;;;;;;5.61;85.61;96016.77;108892;1272;22543;-73
2024/03/03 05:24:36;;;;;;;;;;;;;;;5.60;85.66;96013.48;108888;1270;22688;-73
2024/03/03 05:27:17;;;;;;;9.80;5.70;;;;;;;5.62;85.95;96009.56;108837;1272;22511;-73
2024/03/03 05:29:49;;;;;;;9.50;5.60;;;;;;;5.70;86.02;96004.05;108908;1272;22557;-73
2024/03/03 05:32:30;;;;;;;8.00;5.30;;;;;;;5.76;86.10;96003.67;108854;1269;22508;-73
2024/03/03 05:35:10;;;;;;;9.90;5.80;;;;;;;5.84;86.14;96005.05;108947;1273;22526;-73
2024/03/03 05:37:51;;;;;;;9.60;5.30;;;;;;;5.91;86.11;96003.56;108888;1269;22541;-73
2024/03/03 05:40:23;;;;;;;7.60;4.70;;;;;;;5.96;85.95;96006.84;108801;1272;22537;-74
2024/03/03 05:42:56;;;;;;;7.70;5.70;;;;;;;5.95;85.77;96005.20;108904;1272;22520;-73
2024/03/03 05:45:30;;;;;;;9.30;5.80;;;;;;;5.92;85.60;96002.95;108873;1272;23859;-74
2024/03/03 05:48:03;;;;;;;14.80;7.30;;;;;;;5.99;85.93;96005.56;108866;1266;22530;-73
2024/03/03 05:50:42;;;;;;;9.50;6.50;;;;;;;6.05;85.60;96007.61;108842;1269;22703;-73
2024/03/03 05:53:13;;;;;;;10.10;6.40;;;;;;;6.03;85.34;96004.08;108790;1256;23012;-73
2024/03/03 05:55:44;;;;;;;10.00;6.10;;;;;;;6.07;85.62;96002.94;108780;1267;22533;-73
2024/03/03 05:58:18;;;;;;;9.80;6.60;;;;;;;6.19;85.55;96003.77;108814;1273;22701;-73
2024/03/03 06:00:51;;;;;;;11.10;6.90;;;;;;;6.29;85.52;96003.16;108805;1274;23981;-73
2024/03/03 06:03:23;;;;;;;11.10;6.60;;;;;;;6.37;85.28;96007.92;108837;1266;22768;-73
2024/03/03 06:05:57;;;;;;;10.00;5.90;;;;;;;6.42;85.15;96012.84;108872;1253;23128;-72
2024/03/03 06:08:28;;;;;;;9.60;5.90;;;;;;;6.53;85.25;96011.20;108813;1272;22690;-73
2024/03/03 06:10:59;;;;;;;10.00;5.90;;;;;;;6.69;85.44;96007.99;108854;1273;22525;-72
2024/03/03 06:13:31;;;;;;;9.50;6.80;;;;;;;6.95;85.81;96011.70;108749;1274;23673;-73
2024/03/03 06:16:07;;;;;;;8.40;5.70;;;;;;;7.22;85.29;96010.13;108793;1275;22508;-73
2024/03/03 06:18:41;;;;;;;7.90;5.40;;;;;;;7.34;84.70;96011.27;108754;1273;25948;-73
2024/03/03 06:21:15;;;;;;;7.10;5.10;;;;;;;7.51;84.55;96017.19;108772;1272;22511;-73
2024/03/03 06:23:46;;;;;;;9.70;6.00;;;;;;;7.70;84.51;96017.98;108846;1272;22516;-74
2024/03/03 06:26:19;;;;;;;9.20;6.00;;;;;;;7.95;84.24;96015.53;108885;1269;22511;-73
2024/03/03 06:28:52;;;;;;;8.30;5.70;;;;;;;8.18;84.07;96015.72;108863;1272;23319;-73
2024/03/03 06:31:26;;;;;;;7.70;5.00;;;;;;;8.46;83.90;96016.77;108850;1273;25410;-73
2024/03/03 06:33:57;;;;;;;9.40;5.90;;;;;;;8.69;83.41;96014.21;108772;1273;22514;-73
2024/03/03 06:36:30;;;;;;;9.00;6.10;;;;;;;8.92;83.08;96010.63;108775;1267;23832;-73
2024/03/03 06:39:04;;;;;;;10.70;7.20;;;;;;;9.03;82.34;96009.83;108807;1274;22641;-73
2024/03/03 06:41:35;;;;;;;11.70;7.20;;;;;;;9.03;82.07;96010.52;108826;1273;22550;-73
2024/03/03 06:44:06;;;;;;;9.00;6.30;;;;;;;9.23;82.25;96010.52;108810;1273;22518;-73
2024/03/03 06:46:44;;;;;;;8.00;5.60;;;;;;;9.82;82.84;96006.70;108796;1272;22703;-73
2024/03/03 06:49:22;;;;;;;8.40;5.80;;;;;;;10.62;82.35;96007.22;108795;1272;22507;-73
2024/03/03 06:51:56;;;;;;;7.70;5.60;;;;;;;11.52;81.97;96003.48;108811;1267;25420;-73
2024/03/03 06:54:32;;;;;;;7.80;6.20;;;;;;;12.27;80.26;96003.29;108786;1274;22534;-73
2024/03/03 06:57:03;;;;;;;9.30;6.30;;;;;;;12.74;78.88;96002.89;108776;1268;22530;-73
2024/03/03 06:59:38;;;;;;;8.30;6.00;;;;;;;12.92;77.26;96003.59;108762;1274;22828;-73
2024/03/03 07:02:12;;;;;;;8.70;6.00;;;;;;;13.33;76.97;95995.49;108793;1272;22526;-73
2024/03/03 07:04:43;;;;;;;7.30;5.20;;;;;;;14.31;77.45;95992.13;108789;1250;22531;-74
2024/03/03 07:07:19;;;;;;;6.80;5.10;;;;;;;15.31;76.65;95988.19;108904;1267;23191;-73
2024/03/03 07:09:52;;;;;;;7.70;5.20;;;;;;;15.70;74.78;95989.23;108886;1254;22511;-73
2024/03/03 07:12:26;;;;;;;6.70;5.60;;;;;;;15.70;73.79;95987.55;108755;1266;22896;-74
2024/03/03 07:14:57;;;;;;;8.00;5.10;;;;;;;15.68;72.71;95988.41;108817;1274;22506;-74
2024/03/03 07:17:31;;;;;;;9.00;5.80;;;;;;;15.85;72.40;95990.26;108819;1266;25313;-74
2024/03/03 07:20:06;;;;;;;7.70;5.10;;;;;;;16.77;71.86;95989.52;108809;1274;22554;-74
2024/03/03 07:22:40;;;;;;;27.90;22.60;;;;;;;17.67;70.86;95981.34;108800;1274;25432;-74
2024/03/03 07:25:11;;;;;;;17.90;14.20;;;;;;;18.33;69.55;95980.20;108769;1275;22524;-74
2024/03/03 07:27:45;;;;;;;12.00;8.50;;;;;;;18.87;68.37;95971.19;108769;1274;22547;-74
2024/03/03 07:30:22;;;;;;;7.90;5.00;;;;;;;19.21;67.09;95973.67;108745;1272;22517;-74
2024/03/03 07:32:53;;;;;;;5.50;4.60;;;;;;;19.11;64.99;95971.90;108906;1269;22504;-74
2024/03/03 07:35:27;;;;;;;5.60;4.70;;;;;;;19.34;64.52;95977.49;108784;1265;22515;-74
2024/03/03 07:37:58;;;;;;;5.60;4.70;;;;;;;19.78;63.92;95978.55;108808;1266;25410;-74
2024/03/03 07:40:36;;;;;;;5.20;4.70;;;;;;;20.52;63.31;95982.55;108846;1272;22517;-74
2024/03/03 07:43:14;;;;;;;7.10;5.10;;;;;;;21.11;61.86;95976.58;108792;1269;23809;-74
2024/03/03 07:45:46;;;;;;;5.10;4.20;;;;;;;21.83;60.64;95978.70;108819;1275;22525;-74
2024/03/03 07:48:22;;;;;;;5.70;4.70;;;;;;;22.34;59.93;95978.97;108742;1270;22551;-74
2024/03/03 07:50:56;;;;;;;6.40;4.40;;;;;;;22.31;58.28;95984.11;108825;1274;22535;-75
2024/03/03 07:53:28;;;;;;;4.90;4.30;;;;;;;22.40;57.65;95982.59;108798;1272;22524;-74
2024/03/03 07:56:02;;;;;;;5.70;4.40;;;;;;;22.17;56.06;95982.63;108955;1272;22533;-75
2024/03/03 07:58:37;;;;;;;6.00;4.60;;;;;;;22.50;55.85;95980.22;108801;1272;22895;-75
2024/03/03 08:01:08;;;;;;;8.10;5.00;;;;;;;22.85;55.10;95985.20;108822;1270;22685;-75
2024/03/03 08:03:41;;;;;;;5.20;4.50;;;;;;;22.82;53.56;95984.41;108843;1272;22586;-75
2024/03/03 08:06:14;;;;;;;6.80;4.50;;;;;;;22.56;53.36;95985.14;108823;1272;22511;-74
2024/03/03 08:08:47;;;;;;;4.90;4.40;;;;;;;22.21;52.48;95983.83;108852;1272;22514;-75
2024/03/03 08:11:22;;;;;;;6.30;4.70;;;;;;;21.76;52.10;95985.57;108839;1272;22557;-75
2024/03/03 08:13:53;;;;;;;6.50;4.70;;;;;;;21.02;51.83;95990.92;108817;1267;22538;-75
2024/03/03 08:16:33;;;;;;;8.70;5.10;;;;;;;20.30;51.85;95988.92;108828;1272;22631;-75
2024/03/03 08:19:07;;;;;;;6.50;5.10;;;;;;;19.57;51.93;95988.62;108846;1269;24219;-74
2024/03/03 08:21:43;;;;;;;7.90;5.90;;;;;;;18.82;51.18;95987.93;108779;1269;22778;-75
2024/03/03 08:24:17;;;;;;;10.70;6.60;;;;;;;18.62;52.37;95989.57;108921;1270;22504;-75
2024/03/03 08:26:53;;;;;;;10.10;7.30;;;;;;;19.16;53.01;95989.29;108828;1272;22862;-75
2024/03/03 08:29:25;;;;;;;8.60;6.70;;;;;;;19.91;53.07;95984.14;108804;1270;23691;-74
2024/03/03 08:31:56;;;;;;;9.70;7.20;;;;;;;19.68;51.76;95985.11;108795;1272;22574;-75
2024/03/03 08:34:32;;;;;;;11.00;7.00;;;;;;;19.76;52.48;95989.89;108850;1252;22511;-74
2024/03/03 08:37:12;;;;;;;8.40;6.90;;;;;;;20.35;52.67;95989.85;108851;1272;22523;-74
2024/03/03 08:39:46;;;;;;;9.40;7.40;;;;;;;20.73;51.81;95991.88;108868;1272;22931;-75
2024/03/03 08:42:19;;;;;;;10.40;7.00;;;;;;;19.89;51.30;95985.27;108812;1272;23720;-76
2024/03/03 08:44:56;;;;;;;8.70;7.30;;;;;;;19.62;51.89;95985.75;108848;1272;25453;-75
2024/03/03 08:47:27;;;;;;;9.70;6.80;;;;;;;19.49;51.85;95986.23;108891;1269;22504;-75
2024/03/03 08:49:59;;;;;;;8.90;6.60;;;;;;;19.20;51.90;95989.45;108776;1265;22544;-76
2024/03/03 08:52:35;;;;;;;9.80;6.90;;;;;;;19.64;52.78;95988.69;108773;1272;22659;-75
2024/03/03 08:55:08;;;;;;;10.90;7.70;;;;;;;20.77;52.46;95990.16;108715;1274;23537;-74
2024/03/03 08:57:41;;;;;;;8.10;6.10;;;;;;;21.39;51.91;95988.81;108815;1275;22526;-74
2024/03/03 09:00:19;;;;;;;10.20;6.20;;;;;;;21.80;51.07;95987.14;108754;1275;22513;-74
2024/03/03 09:02:50;;;;;;;8.10;6.10;;;;;;;21.80;50.18;95987.77;108826;1267;22511;-74
2024/03/03 09:05:22;;;;;;;9.30;5.80;;;;;;;21.07;48.97;95992.45;108811;1272;22514;-74
2024/03/03 09:07:58;;;;;;;10.20;6.50;;;;;;;20.57;49.56;95991.60;108851;1272;22513;-74
2024/03/03 09:10:31;;;;;;;7.40;5.60;;;;;;;19.86;49.29;95988.55;108805;1272;22562;-74
2024/03/03 09:13:07;;;;;;;8.00;5.50;;;;;;;19.60;50.14;95984.20;108800;1272;22515;-74
2024/03/03 09:15:43;;;;;;;10.50;6.60;;;;;;;19.35;50.11;95987.27;108785;1267;22516;-74
2024/03/03 09:18:18;;;;;;;9.40;6.20;;;;;;;18.88;50.04;95983.48;108808;1274;22525;-74
2024/03/03 09:20:52;;;;;;;8.60;5.90;;;;;;;18.53;49.87;95984.79;108786;1274;22514;-74
2024/03/03 09:23:25;;;;;;;7.90;5.70;;;;;;;18.10;50.11;95982.88;108859;1272;23757;-74
2024/03/03 09:25:59;;;;;;;8.60;6.10;;;;;;;17.51;50.15;95984.54;108858;1272;24224;-74
2024/03/03 09:28:33;;;;;;;9.60;5.80;;;;;;;17.12;50.77;95985.70;108872;1269;22518;-74
2024/03/03 09:31:07;;;;;;;8.50;6.00;;;;;;;16.99;51.21;95982.85;108843;1272;22595;-74
2024/03/03 09:33:40;;;;;;;8.20;5.90;;;;;;;16.87;51.37;95982.91;108870;1254;24966;-74
2024/03/03 09:36:13;;;;;;;8.60;6.30;;;;;;;16.80;51.66;95981.77;108837;1272;22511;-74
2024/03/03 09:38:46;;;;;;;9.60;5.90;;;;;;;16.71;51.86;95983.09;108856;1272;24103;-74
2024/03/03 09:41:24;;;;;;;8.30;6.20;;;;;;;16.74;52.11;95981.64;108856;1270;22516;-74
2024/03/03 09:44:08;;;;;;;8.60;6.20;;;;;;;16.68;52.20;95982.37;108886;1272;24164;-74
2024/03/03 09:46:44;;;;;;;7.00;5.90;;;;;;;16.64;52.38;95983.70;108853;1267;22672;-74
2024/03/03 09:49:20;;;;;;;8.40;6.20;;;;;;;16.57;52.41;95979.83;108836;1272;22647;-74
2024/03/03 09:51:53;;;;;;;6.50;5.40;;;;;;;16.62;52.94;95979.96;108797;1272;22518;-74
2024/03/03 09:54:24;;;;;;;7.50;5.80;;;;;;;16.71;52.81;95975.14;108880;1272;24419;-74
2024/03/03 09:57:00;;;;;;;7.70;6.00;;;;;;;16.67;52.63;95978.33;108946;1270;22528;-74
2024/03/03 09:59:33;;;;;;;8.80;5.40;;;;;;;16.82;52.75;95977.17;108857;1271;22518;-74
2024/03/03 10:02:11;;;;;;;6.80;4.90;;;;;;;16.73;52.19;95976.18;108878;1267;22520;-74
2024/03/03 10:04:46;;;;;;;6.90;5.00;;;;;;;16.71;52.17;95975.35;108851;1272;22523;-74
2024/03/03 10:07:23;;;;;;;7.90;5.70;;;;;;;16.69;52.24;95974.15;108881;1266;22832;-74
2024/03/03 10:10:04;;;;;;;;;;;;;;;16.85;52.19;95970.09;108933;1272;23572;-74
2024/03/03 10:12:36;;;;;;;5.90;4.30;;;;;;;16.92;52.53;95965.81;108785;1272;23813;-74
2024/03/03 10:15:12;;;;;;;7.70;5.70;;;;;;;16.88;51.95;95963.82;108868;1270;22514;-74
2024/03/03 10:17:45;;;;;;;6.90;4.80;;;;;;;16.86;52.62;95959.40;108919;1267;23114;-74
2024/03/03 10:20:20;;;;;;;7.70;5.90;;;;;;;16.84;52.32;95960.79;108885;1273;25059;-74
2024/03/03 10:22:51;;;;;;;7.30;5.70;;;;;;;16.86;52.85;95960.71;108832;1273;23815;-74
2024/03/03 10:25:27;;;;;;;7.40;5.40;;;;;;;16.91;52.76;95961.58;108867;1272;23804;-74
2024/03/03 10:28:13;;;;;;;6.60;5.60;;;;;;;16.86;52.45;95961.73;108781;1267;22565;-74
2024/03/03 10:30:46;;;;;;;7.20;5.40;;;;;;;16.82;52.71;95953.23;108845;1272;22518;-74
2024/03/03 10:33:21;;;;;;;7.40;5.00;;;;;;;16.78;52.37;95953.42;108870;1273;23795;-74
2024/03/03 10:36:07;;;;;;;8.00;5.60;;;;;;;16.77;52.47;95950.64;108898;1267;24219;-74
2024/03/03 10:38:41;;;;;;;7.00;5.00;;;;;;;16.99;53.13;95943.36;108837;1267;24256;-74
2024/03/03 10:41:16;;;;;;;7.10;5.20;;;;;;;17.23;52.95;95940.89;108818;1267;22521;-72
2024/03/03 10:43:51;;;;;;;8.90;6.10;;;;;;;17.34;52.69;95934.02;108832;1267;22489;-72
2024/03/03 10:46:25;;;;;;;8.90;5.30;;;;;;;17.04;51.76;95934.12;108858;1267;22712;-71
2024/03/03 10:49:02;;;;;;;7.00;5.60;;;;;;;16.70;52.23;95934.49;108751;1270;23782;-72
2024/03/03 10:51:37;;;;;;;9.20;6.10;;;;;;;16.70;52.49;95928.45;108695;1272;22703;-72
2024/03/03 10:54:14;;;;;;;6.50;4.60;;;;;;;16.84;52.23;95927.60;108736;1268;22587;-72
2024/03/03 10:56:46;;;;;;;6.70;4.30;;;;;;;16.54;51.16;95928.55;108744;1266;22547;-72
2024/03/03 10:59:22;;;;;;;4.90;4.00;;;;;;;16.41;51.42;95926.78;108709;1266;22528;-72
2024/03/03 11:01:57;;;;;;;6.60;4.80;;;;;;;16.23;51.23;95922.06;108873;1267;22931;-72
2024/03/03 11:04:32;;;;;;;5.30;4.10;;;;;;;16.14;51.43;95917.24;108846;1269;23857;-72
2024/03/03 11:07:06;;;;;;;6.20;4.90;;;;;;;15.81;51.17;95916.77;108820;1272;23232;-73
2024/03/03 11:09:41;;;;;;;7.50;4.80;;;;;;;15.49;51.59;95915.38;108722;1262;26573;-73
2024/03/03 11:12:18;;;;;;;6.50;4.80;;;;;;;15.29;51.82;95913.04;108809;1272;22531;-73
2024/03/03 11:14:56;;;;;;;;;;;;;;;14.85;51.69;95912.27;108869;1266;25928;-73
2024/03/03 11:17:39;;;;;;;6.40;5.10;;;;;;;14.62;51.93;95911.21;108779;1272;22512;-73
2024/03/03 11:20:18;;;;;;;6.40;4.60;;;;;;;14.31;52.09;95911.23;108839;1272;25233;-74
2024/03/03 11:23:07;;;;;;;5.40;4.10;;;;;;;14.22;52.47;95910.19;108849;1268;22507;-75
2024/03/03 11:25:47;;;;;;;7.10;4.80;;;;;;;14.20;52.41;95908.18;108953;1267;22555;-74
2024/03/03 11:28:25;;;;;;;6.60;4.40;;;;;;;14.26;52.82;95903.44;108655;1267;22590;-74
2024/03/03 11:30:56;;;;;;;6.50;4.30;;;;;;;14.40;52.98;95903.77;108742;1272;22535;-74
2024/03/03 11:33:36;;;;;;;6.00;4.40;;;;;;;14.48;52.96;95897.55;108676;1266;24212;-74
2024/03/03 11:36:07;;;;;;;;;;;;;;;14.54;53.03;95898.66;109809;1270;24185;-74
2024/03/03 11:38:47;;;;;;;5.60;4.30;;;;;;;14.60;52.97;95896.27;109898;1272;22521;-74
2024/03/03 11:41:21;;;;;;;6.60;5.20;;;;;;;14.74;53.00;95890.20;108812;1265;22521;-75
2024/03/03 11:43:56;;;;;;;8.70;5.00;;;;;;;14.93;53.33;95884.30;108810;1272;22582;-74
2024/03/03 11:46:49;;;;;;;7.30;4.80;;;;;;;14.98;52.93;95876.93;108824;1269;22586;-74
2024/03/03 11:49:26;;;;;;;5.50;4.40;;;;;;;15.11;53.02;95876.84;108906;1267;22524;-74
2024/03/03 11:51:58;;;;;;;6.40;4.20;;;;;;;14.99;52.31;95878.65;108822;1251;22512;-74
2024/03/03 11:54:37;;;;;;;6.20;4.70;;;;;;;14.83;52.35;95873.63;108794;1267;22531;-74
2024/03/03 11:57:14;;;;;;;5.40;4.40;;;;;;;14.73;52.51;95872.41;108847;1270;22515;-74
2024/03/03 11:59:50;;;;;;;6.50;4.70;;;;;;;14.64;52.15;95868.77;108868;1274;22465;-74